Time;durP1;ratioP1;P1;durP2;ratioP2;P2;SDS_P1;SDS_P2;PMS_P1;PMS_P2;Temp;Humidity;BMP_temperature;BMP_pressure;BME280_temperature;BME280_humidity;BME280_pressure;Samples;Min_cycle;Max_cycle;Signal;HPM_P1;HPM_P2
2020/12/06 00:01:29;;;;;;;31.90;21.37;;;;;;;3.63;100.00;98958.72;4922371;29;20205;-34
2020/12/06 00:04:19;;;;;;;31.97;20.97;;;;;;;3.77;100.00;98959.56;4922358;29;20209;-35
2020/12/06 00:07:05;;;;;;;29.53;19.87;;;;;;;3.77;100.00;98939.97;4922271;29;20280;-34
2020/12/06 00:09:51;;;;;;;29.97;19.87;;;;;;;3.56;100.00;98934.03;4922182;29;20206;-34
2020/12/06 00:12:38;;;;;;;28.77;19.50;;;;;;;2.82;100.00;98924.72;4921683;29;20484;-34
2020/12/06 00:15:23;;;;;;;29.23;19.87;;;;;;;2.68;100.00;98925.59;4922129;29;20303;-35
2020/12/06 00:18:09;;;;;;;34.03;21.50;;;;;;;2.89;100.00;98919.63;4921895;29;20542;-38
2020/12/06 00:20:55;;;;;;;32.77;21.27;;;;;;;2.81;100.00;98928.13;4921753;29;20610;-33
2020/12/06 00:23:40;;;;;;;29.97;20.00;;;;;;;2.83;100.00;98914.53;4921289;29;20205;-37
2020/12/06 00:26:27;;;;;;;28.30;20.00;;;;;;;3.24;100.00;98894.06;4922119;29;20228;-34
2020/12/06 00:29:13;;;;;;;35.00;21.03;;;;;;;3.15;100.00;98865.13;4921468;29;20288;-36
2020/12/06 00:31:58;;;;;;;32.23;20.27;;;;;;;3.36;100.00;98850.59;4921663;29;20599;-33
2020/12/06 00:34:44;;;;;;;34.00;21.27;;;;;;;3.19;100.00;98849.81;4921168;29;20201;-33
2020/12/06 00:37:30;;;;;;;34.90;21.57;;;;;;;3.10;100.00;98853.22;4921590;29;20196;-38
2020/12/06 00:40:15;;;;;;;40.20;25.00;;;;;;;2.94;100.00;98882.19;4921495;29;20209;-34
2020/12/06 00:43:05;;;;;;;36.20;20.90;;;;;;;2.15;100.00;98924.63;4921172;29;20200;-33
2020/12/06 00:45:51;;;;;;;33.60;21.57;;;;;;;2.13;100.00;98937.38;4921549;29;20476;-35
2020/12/06 00:48:39;;;;;;;41.67;24.53;;;;;;;2.67;100.00;98912.81;4921442;29;20501;-35
2020/12/06 00:51:25;;;;;;;37.73;22.73;;;;;;;2.96;100.00;98921.34;4921093;29;20292;-33
2020/12/06 00:54:11;;;;;;;35.73;23.37;;;;;;;3.11;100.00;98923.03;4921224;29;20205;-38
2020/12/06 00:56:57;;;;;;;43.67;26.57;;;;;;;2.99;100.00;98907.72;4921500;29;20481;-35
2020/12/06 00:59:43;;;;;;;48.37;28.77;;;;;;;2.94;100.00;98891.56;4921253;29;20473;-35
2020/12/06 01:02:29;;;;;;;41.20;26.53;;;;;;;3.03;100.00;98864.28;4921415;29;20205;-37
2020/12/06 01:05:15;;;;;;;42.30;25.97;;;;;;;2.70;100.00;98866.88;4921048;29;20201;-36
2020/12/06 01:08:01;;;;;;;43.97;27.20;;;;;;;2.77;100.00;98881.34;4921050;29;20686;-35
2020/12/06 01:10:46;;;;;;;47.03;26.63;;;;;;;2.77;100.00;98906.88;4920926;29;20248;-34
2020/12/06 01:13:32;;;;;;;44.87;26.07;;;;;;;2.84;100.00;98921.31;4921447;29;20482;-35
2020/12/06 01:16:19;;;;;;;43.50;26.47;;;;;;;2.98;100.00;98899.22;4920844;29;20221;-36
2020/12/06 01:19:05;;;;;;;41.43;25.47;;;;;;;3.03;100.00;98891.53;4920869;29;20468;-39
2020/12/06 01:21:51;;;;;;;48.50;25.63;;;;;;;3.00;100.00;98884.72;4920935;29;20220;-36
2020/12/06 01:24:37;;;;;;;46.57;27.13;;;;;;;2.97;100.00;98878.78;4921212;29;20453;-36
2020/12/06 01:27:23;;;;;;;46.53;27.63;;;;;;;2.62;100.00;98871.97;4920578;29;20328;-37
2020/12/06 01:30:09;;;;;;;48.90;27.87;;;;;;;2.66;100.00;98883.03;4920751;29;20265;-39
2020/12/06 01:32:55;;;;;;;46.43;28.13;;;;;;;2.81;100.00;98883.03;4920742;29;20244;-35
2020/12/06 01:35:40;;;;;;;49.67;28.33;;;;;;;2.71;100.00;98884.75;4920838;29;20230;-35
2020/12/06 01:38:26;;;;;;;46.30;28.57;;;;;;;2.62;100.00;98894.94;4920291;29;20469;-34
2020/12/06 01:41:12;;;;;;;44.87;26.07;;;;;;;2.18;100.00;98905.09;4920319;29;20204;-36
2020/12/06 01:43:58;;;;;;;45.47;25.80;;;;;;;2.37;100.00;98913.63;4920554;29;20541;-34
2020/12/06 01:46:45;;;;;;;38.63;24.10;;;;;;;2.08;100.00;98921.19;4920706;29;20228;-36
2020/12/06 01:49:36;;;;;;;44.00;25.30;;;;;;;2.04;100.00;98933.09;4920157;29;20209;-33
2020/12/06 01:52:22;;;;;;;42.73;25.53;;;;;;;2.15;100.00;98928.03;4920885;29;20201;-32
2020/12/06 01:55:12;;;;;;;38.37;25.40;;;;;;;2.61;100.00;98915.34;4920666;29;20285;-34
2020/12/06 01:58:04;;;;;;;42.97;26.17;;;;;;;2.59;100.00;98914.53;4920034;29;20205;-36
2020/12/06 02:00:51;;;;;;;39.13;24.37;;;;;;;2.31;100.00;98903.41;4920044;29;20257;-35
2020/12/06 02:03:36;;;;;;;45.57;27.73;;;;;;;2.35;100.00;98915.34;4920288;29;20205;-34
2020/12/06 02:06:23;;;;;;;46.43;29.20;;;;;;;2.48;100.00;98913.66;4919686;29;20240;-34
2020/12/06 02:09:09;;;;;;;38.50;23.37;;;;;;;2.40;100.00;98918.72;4920620;29;20197;-38
2020/12/06 02:11:55;;;;;;;42.67;27.50;;;;;;;2.57;100.00;98906.88;4920765;29;20345;-34
2020/12/06 02:14:40;;;;;;;42.73;27.30;;;;;;;2.53;100.00;98889.00;4920229;29;20212;-33
2020/12/06 02:17:26;;;;;;;40.27;26.97;;;;;;;2.59;100.00;98889.84;4920332;29;20289;-37
2020/12/06 02:20:14;;;;;;;44.50;28.70;;;;;;;2.60;100.00;98886.41;4920370;29;20210;-36
2020/12/06 02:23:00;;;;;;;42.17;26.77;;;;;;;2.58;100.00;98889.84;4920245;29;20202;-36
2020/12/06 02:25:45;;;;;;;38.93;25.87;;;;;;;2.69;100.00;98900.91;4920212;29;20205;-35
2020/12/06 02:28:31;;;;;;;46.23;27.67;;;;;;;2.68;100.00;98891.53;4919857;29;20285;-35
2020/12/06 02:31:17;;;;;;;38.90;24.43;;;;;;;2.48;100.00;98891.53;4919890;29;20302;-37
2020/12/06 02:34:03;;;;;;;40.23;25.97;;;;;;;2.55;100.00;98900.06;4919514;29;20232;-37
2020/12/06 02:36:50;;;;;;;39.33;25.17;;;;;;;2.58;100.00;98900.91;4920702;29;20333;-36
2020/12/06 02:39:35;;;;;;;43.73;27.63;;;;;;;2.68;100.00;98889.00;4919958;29;20213;-33
2020/12/06 02:42:21;;;;;;;43.27;26.80;;;;;;;2.75;100.00;98872.84;4920201;29;20204;-36
2020/12/06 02:45:07;;;;;;;39.17;24.70;;;;;;;2.65;100.00;98878.78;4920105;29;20206;-35
2020/12/06 02:47:53;;;;;;;35.33;23.73;;;;;;;2.59;100.00;98869.44;4922872;29;20633;-33
2020/12/06 02:50:39;;;;;;;40.87;27.23;;;;;;;2.90;100.00;98869.41;4923320;29;20380;-34
2020/12/06 02:53:25;;;;;;;35.97;22.73;;;;;;;2.91;100.00;98883.88;4923617;29;20206;-34
2020/12/06 02:56:11;;;;;;;35.80;22.87;;;;;;;2.61;100.00;98882.16;4923618;29;20225;-33
2020/12/06 02:58:56;;;;;;;39.00;22.47;;;;;;;2.55;100.00;98884.75;4923278;29;20205;-33
2020/12/06 03:01:42;;;;;;;35.33;22.20;;;;;;;2.67;100.00;98885.59;4923398;29;20197;-34
2020/12/06 03:04:28;;;;;;;35.30;23.17;;;;;;;2.71;100.00;98878.78;4923308;29;20214;-38
2020/12/06 03:07:14;;;;;;;34.93;22.27;;;;;;;2.82;100.00;98877.06;4923581;29;20235;-37
2020/12/06 03:10:05;;;;;;;39.30;24.13;;;;;;;2.84;100.00;98887.28;4923776;29;20625;-35
2020/12/06 03:12:51;;;;;;;33.30;21.43;;;;;;;2.67;100.00;98887.28;4923189;29;20204;-33
2020/12/06 03:15:36;;;;;;;34.70;22.60;;;;;;;2.69;100.00;98895.81;4923235;29;20612;-39
2020/12/06 03:18:22;;;;;;;36.50;22.80;;;;;;;2.80;100.00;98898.38;4922841;29;20205;-35
2020/12/06 03:21:08;;;;;;;37.43;23.47;;;;;;;2.79;100.00;98901.78;4923266;29;20201;-36
2020/12/06 03:23:54;;;;;;;35.27;22.60;;;;;;;2.84;100.00;98897.50;4922944;29;20240;-33
2020/12/06 03:26:40;;;;;;;34.23;21.27;;;;;;;2.90;100.00;98890.69;4922528;29;20209;-32
2020/12/06 03:29:26;;;;;;;34.87;22.67;;;;;;;2.95;100.00;98875.38;4923002;29;20216;-38
2020/12/06 03:32:12;;;;;;;40.43;23.07;;;;;;;2.96;100.00;98877.94;4921818;29;20237;-33
2020/12/06 03:34:57;;;;;;;35.73;23.30;;;;;;;3.01;100.00;98883.00;4922278;29;20212;-34
2020/12/06 03:37:44;;;;;;;33.47;23.63;;;;;;;3.13;100.00;98877.06;4922290;29;20321;-33
2020/12/06 03:40:29;;;;;;;34.23;23.67;;;;;;;3.31;100.00;98869.34;4922942;29;20261;-34
2020/12/06 03:43:16;;;;;;;37.37;24.20;;;;;;;3.35;100.00;98865.94;4923061;29;20257;-36
2020/12/06 03:46:02;;;;;;;39.97;25.50;;;;;;;3.44;100.00;98859.09;4922391;29;20353;-32
2020/12/06 03:48:47;;;;;;;37.23;24.73;;;;;;;3.63;100.00;98862.41;4922576;29;20507;-33
2020/12/06 03:51:33;;;;;;;40.80;25.40;;;;;;;3.73;100.00;98859.00;4922487;29;20261;-33
2020/12/06 03:54:18;;;;;;;38.57;24.70;;;;;;;3.46;100.00;98853.97;4922917;29;20569;-34
2020/12/06 03:57:04;;;;;;;35.23;22.80;;;;;;;3.45;100.00;98857.38;4922382;29;20202;-38
2020/12/06 03:59:50;;;;;;;36.53;22.13;;;;;;;3.30;100.00;98865.94;4922027;29;20483;-35
2020/12/06 04:02:36;;;;;;;32.93;23.17;;;;;;;3.43;100.00;98875.28;4922609;29;20217;-37
2020/12/06 04:05:22;;;;;;;35.70;23.00;;;;;;;3.87;100.00;98883.63;4922407;29;20213;-38
2020/12/06 04:08:07;;;;;;;36.30;23.03;;;;;;;4.09;100.00;98887.81;4922339;29;20237;-35
2020/12/06 04:10:53;;;;;;;36.23;23.40;;;;;;;4.26;100.00;98872.34;4922177;29;20289;-38
2020/12/06 04:13:39;;;;;;;36.43;24.13;;;;;;;4.28;100.00;98875.75;4921787;29;20355;-31
2020/12/06 04:16:26;;;;;;;37.80;25.20;;;;;;;4.32;100.00;98880.00;4922148;29;20319;-35
2020/12/06 04:19:11;;;;;;;38.83;25.83;;;;;;;4.39;100.00;98872.28;4922292;29;20349;-36
2020/12/06 04:21:58;;;;;;;37.37;25.27;;;;;;;4.35;100.00;98856.94;4922204;29;20201;-35
2020/12/06 04:24:43;;;;;;;38.53;25.33;;;;;;;4.31;100.00;98853.56;4921822;29;20209;-39
2020/12/06 04:27:29;;;;;;;40.93;26.17;;;;;;;4.15;100.00;98840.00;4922377;29;20229;-33
2020/12/06 04:30:15;;;;;;;40.07;26.57;;;;;;;4.23;100.00;98832.25;4921738;29;20209;-35
2020/12/06 04:33:01;;;;;;;42.80;25.20;;;;;;;4.32;100.00;98821.13;4921381;29;20324;-33
2020/12/06 04:35:47;;;;;;;43.47;26.23;;;;;;;4.33;100.00;98823.69;4921956;29;20485;-33
2020/12/06 04:38:33;;;;;;;36.23;23.80;;;;;;;4.28;100.00;98820.28;4921788;29;20197;-33
2020/12/06 04:41:18;;;;;;;38.33;25.33;;;;;;;4.29;100.00;98829.69;4921766;29;20289;-32
2020/12/06 04:44:04;;;;;;;43.63;26.57;;;;;;;4.23;100.00;98821.19;4921782;29;20612;-34
2020/12/06 04:46:55;;;;;;;41.30;26.23;;;;;;;3.96;100.00;98832.44;4921330;29;20204;-34
2020/12/06 04:49:45;;;;;;;39.87;26.13;;;;;;;4.18;100.00;98843.41;4921317;29;20471;-34
2020/12/06 04:52:42;;;;;;;41.07;25.97;;;;;;;4.06;100.00;98840.06;4921136;29;20472;-31
2020/12/06 04:55:30;;;;;;;40.43;26.53;;;;;;;3.75;100.00;98839.38;4921146;29;20233;-35
2020/12/06 04:58:21;;;;;;;42.70;26.80;;;;;;;3.78;100.00;98841.06;4920727;29;20352;-35
2020/12/06 05:01:07;;;;;;;34.30;23.60;;;;;;;3.43;100.00;98851.41;4921174;29;20485;-33
2020/12/06 05:03:58;;;;;;;43.63;27.80;;;;;;;3.45;100.00;98859.94;4920807;29;20197;-32
2020/12/06 05:06:46;;;;;;;41.73;26.23;;;;;;;3.39;100.00;98844.63;4920871;29;20253;-35
2020/12/06 05:09:35;;;;;;;44.60;27.93;;;;;;;3.52;100.00;98830.09;4920419;29;20273;-34
2020/12/06 05:12:21;;;;;;;45.20;28.90;;;;;;;3.54;100.00;98844.56;4920506;29;20201;-32
2020/12/06 05:15:06;;;;;;;44.63;29.53;;;;;;;3.30;100.00;98849.75;4920801;29;20297;-35
2020/12/06 05:17:54;;;;;;;45.70;27.97;;;;;;;3.51;100.00;98826.69;4920849;29;20204;-35
2020/12/06 05:20:40;;;;;;;45.00;29.13;;;;;;;3.72;100.00;98818.94;4920802;29;20201;-36
2020/12/06 05:23:26;;;;;;;44.30;28.13;;;;;;;3.80;100.00;98818.88;4920543;29;20614;-36
2020/12/06 05:26:12;;;;;;;48.57;29.40;;;;;;;3.56;100.00;98812.19;4920986;29;20312;-35
2020/12/06 05:28:59;;;;;;;43.30;26.40;;;;;;;3.49;100.00;98830.09;4920572;29;20237;-34
2020/12/06 05:31:47;;;;;;;46.13;28.63;;;;;;;3.86;100.00;98833.34;4920144;29;20201;-33
2020/12/06 05:34:32;;;;;;;41.60;26.43;;;;;;;3.88;100.00;98834.19;4920725;29;20204;-35
2020/12/06 05:37:17;;;;;;;42.13;25.67;;;;;;;4.02;100.00;98822.16;4920651;29;20317;-35
2020/12/06 05:40:07;;;;;;;43.43;27.17;;;;;;;3.97;100.00;98818.81;4920442;29;20683;-34
2020/12/06 05:42:53;;;;;;;41.60;27.27;;;;;;;3.80;100.00;98811.19;4920308;29;20205;-35
2020/12/06 05:45:40;;;;;;;47.73;29.23;;;;;;;3.70;100.00;98812.97;4920500;29;20200;-33
2020/12/06 05:48:26;;;;;;;50.47;28.43;;;;;;;3.62;100.00;98808.75;4920500;29;20321;-37
2020/12/06 05:51:13;;;;;;;48.77;30.23;;;;;;;3.76;100.00;98812.94;4921178;29;20205;-36
2020/12/06 05:53:59;;;;;;;45.20;27.60;;;;;;;3.90;100.00;98809.47;4920912;29;20205;-38
2020/12/06 05:56:50;;;;;;;45.93;29.17;;;;;;;3.77;100.00;98801.00;4920641;29;20296;-32
2020/12/06 05:59:36;;;;;;;44.30;26.63;;;;;;;3.80;100.00;98804.38;4920855;29;20248;-36
2020/12/06 06:02:23;;;;;;;47.10;29.53;;;;;;;3.89;100.00;98806.06;4920893;29;20204;-32
2020/12/06 06:05:09;;;;;;;50.43;29.77;;;;;;;3.94;100.00;98800.91;4920809;29;20209;-34
2020/12/06 06:07:59;;;;;;;45.00;27.30;;;;;;;3.93;100.00;98787.28;4920526;29;20381;-36
2020/12/06 06:11:01;;;;;;;48.47;30.63;;;;;;;3.92;100.00;98772.78;4920029;29;20211;-35
2020/12/06 06:14:03;;;;;;;47.47;30.60;;;;;;;3.84;100.00;98766.00;4920259;29;20268;-36
2020/12/06 06:16:50;;;;;;;50.43;30.73;;;;;;;3.76;100.00;98763.50;4920204;29;20209;-34
2020/12/06 06:19:36;;;;;;;50.57;31.20;;;;;;;3.92;100.00;98767.66;4920432;29;20197;-32
2020/12/06 06:22:28;;;;;;;47.33;30.10;;;;;;;3.87;100.00;98781.34;4922551;29;20201;-35
2020/12/06 06:25:17;;;;;;;46.57;28.73;;;;;;;3.66;100.00;98789.97;4924348;29;20202;-35
2020/12/06 06:28:03;;;;;;;50.37;30.40;;;;;;;3.85;100.00;98808.63;4923805;29;20224;-37
2020/12/06 06:30:49;;;;;;;46.57;28.13;;;;;;;3.88;100.00;98811.16;4923804;29;20357;-33
2020/12/06 06:33:37;;;;;;;45.23;28.43;;;;;;;3.71;100.00;98817.22;4923676;29;20303;-35
2020/12/06 06:36:23;;;;;;;43.63;26.57;;;;;;;3.56;100.00;98817.31;4924008;29;20592;-34
2020/12/06 06:39:08;;;;;;;43.83;26.10;;;;;;;3.78;100.00;98816.34;4923659;29;20695;-34
2020/12/06 06:41:58;;;;;;;39.67;27.53;;;;;;;3.67;100.00;98820.66;4923718;29;20200;-34
2020/12/06 06:44:45;;;;;;;44.40;26.50;;;;;;;3.79;100.00;98815.50;4923701;29;20204;-35
2020/12/06 06:47:35;;;;;;;42.87;27.80;;;;;;;4.06;100.00;98811.06;4923476;29;20225;-34
2020/12/06 06:50:21;;;;;;;46.13;26.53;;;;;;;3.71;100.00;98812.13;4923289;29;20285;-34
2020/12/06 06:53:09;;;;;;;42.90;26.73;;;;;;;3.44;100.00;98812.22;4923283;29;20221;-34
2020/12/06 06:55:55;;;;;;;49.37;30.07;;;;;;;3.48;100.00;98790.91;4923796;29;20221;-34
2020/12/06 06:58:42;;;;;;;49.93;31.80;;;;;;;3.91;100.00;98783.03;4923399;29;20204;-34
2020/12/06 07:01:28;;;;;;;43.60;28.40;;;;;;;3.69;100.00;98767.81;4923969;29;20217;-34
2020/12/06 07:04:19;;;;;;;48.80;30.37;;;;;;;3.71;100.00;98768.66;4923740;29;20365;-34
2020/12/06 07:07:05;;;;;;;48.27;31.37;;;;;;;3.89;100.00;98761.72;4923503;29;20209;-35
2020/12/06 07:09:52;;;;;;;54.80;32.60;;;;;;;3.97;100.00;98768.50;4923285;29;20660;-37
2020/12/06 07:12:39;;;;;;;52.33;30.07;;;;;;;3.44;100.00;98779.84;4923222;29;20209;-32
2020/12/06 07:15:26;;;;;;;43.00;27.17;;;;;;;3.33;100.00;98794.41;4923365;29;20599;-32
2020/12/06 07:18:12;;;;;;;48.10;28.93;;;;;;;3.49;100.00;98800.28;4923300;29;20297;-33
2020/12/06 07:20:58;;;;;;;51.27;31.00;;;;;;;3.71;100.00;98814.66;4922961;29;20508;-32
2020/12/06 07:23:44;;;;;;;51.77;32.17;;;;;;;3.95;100.00;98813.69;4922743;29;20616;-36
2020/12/06 07:26:31;;;;;;;57.23;34.70;;;;;;;3.85;100.00;98806.06;4923127;29;20204;-34
2020/12/06 07:29:17;;;;;;;55.90;33.33;;;;;;;3.85;100.00;98790.72;4923127;29;20228;-34
2020/12/06 07:32:09;;;;;;;61.37;35.33;;;;;;;4.01;100.00;98779.53;4922819;29;20256;-34
2020/12/06 07:34:58;;;;;;;57.57;33.80;;;;;;;3.78;100.00;98765.22;4928875;29;20217;-32
2020/12/06 07:37:45;;;;;;;57.87;32.30;;;;;;;3.65;100.00;98773.78;4925261;29;20284;-35
2020/12/06 07:40:31;;;;;;;62.60;36.20;;;;;;;3.77;100.00;98775.44;4941696;29;20196;-36
2020/12/06 07:43:17;;;;;;;55.10;32.67;;;;;;;3.94;100.00;98772.78;4941219;29;20260;-34
2020/12/06 07:46:16;;;;;;;51.20;30.90;;;;;;;3.86;100.00;98770.25;4941611;29;20675;-33
2020/12/06 07:49:05;;;;;;;62.10;34.07;;;;;;;3.67;100.00;98772.06;4941477;29;20232;-35
2020/12/06 07:51:51;;;;;;;66.53;37.07;;;;;;;3.85;100.00;98778.78;4941380;29;20202;-34
2020/12/06 07:54:37;;;;;;;52.17;30.83;;;;;;;3.60;100.00;98783.19;4941173;29;20208;-35
2020/12/06 07:57:29;;;;;;;56.70;32.60;;;;;;;3.68;100.00;98796.78;4941087;29;20204;-35
2020/12/06 08:00:17;;;;;;;70.87;35.27;;;;;;;3.96;100.00;98787.25;4940962;29;20299;-33
2020/12/06 08:03:06;;;;;;;56.37;32.80;;;;;;;3.89;100.00;98792.41;4936567;29;20675;-35
2020/12/06 08:05:51;;;;;;;58.17;34.03;;;;;;;3.96;100.00;98794.94;4941398;29;20191;-36
2020/12/06 08:08:40;;;;;;;60.87;34.90;;;;;;;4.19;100.00;98794.78;4941076;29;20223;-35
2020/12/06 08:11:32;;;;;;;72.17;38.50;;;;;;;4.28;100.00;98804.94;4940622;29;20564;-34
2020/12/06 08:14:20;;;;;;;59.77;35.80;;;;;;;4.48;100.00;98805.63;4940151;29;20201;-35
2020/12/06 08:17:05;;;;;;;63.70;38.40;;;;;;;4.56;100.00;98805.59;4940611;29;20614;-37
2020/12/06 08:19:51;;;;;;;77.17;41.60;;;;;;;4.52;100.00;98801.34;4929456;29;20222;-34
2020/12/06 08:22:47;;;;;;;76.23;42.90;;;;;;;4.64;100.00;98803.78;4921614;29;20254;-32
2020/12/06 08:25:34;;;;;;;80.33;42.27;;;;;;;4.62;100.00;98789.28;4921491;29;20200;-34
2020/12/06 08:28:21;;;;;;;71.43;38.13;;;;;;;4.57;100.00;98791.06;4921240;29;20225;-34
2020/12/06 08:31:19;;;;;;;65.40;36.27;;;;;;;4.68;100.00;98784.13;4926200;29;20204;-36
2020/12/06 08:34:20;;;;;;;67.77;38.50;;;;;;;4.62;100.00;98784.19;4924299;29;20294;-34
2020/12/06 08:37:14;;;;;;;78.20;39.77;;;;;;;4.55;100.00;98767.19;4930405;29;20570;-34
2020/12/06 08:40:02;;;;;;;65.87;36.83;;;;;;;4.44;100.00;98774.94;4941251;29;20292;-34
2020/12/06 08:42:57;;;;;;;74.37;38.93;;;;;;;4.82;100.00;98777.16;4940551;29;20221;-33
2020/12/06 08:45:43;;;;;;;71.87;38.20;;;;;;;4.89;100.00;98775.38;4939869;29;20667;-33
2020/12/06 08:48:29;;;;;;;78.37;40.47;;;;;;;5.06;100.00;98770.94;4940169;29;20231;-32
2020/12/06 08:51:31;;;;;;;72.87;40.03;;;;;;;4.72;100.00;98767.88;4940241;29;20217;-33
2020/12/06 08:54:32;;;;;;;77.83;39.90;;;;;;;4.72;100.00;98760.19;4940609;29;20599;-32
2020/12/06 08:57:19;;;;;;;76.37;39.53;;;;;;;4.54;100.00;98756.09;4940405;29;20710;-35
2020/12/06 09:00:08;;;;;;;84.27;41.63;;;;;;;4.69;100.00;98750.81;4940640;29;20201;-37
2020/12/06 09:02:56;;;;;;;81.57;41.13;;;;;;;4.76;100.00;98747.34;4940184;29;20234;-36
2020/12/06 09:05:45;;;;;;;75.73;38.50;;;;;;;4.85;100.00;98731.88;4940245;29;20205;-33
2020/12/06 09:08:31;;;;;;;78.70;39.77;;;;;;;4.53;100.00;98733.06;4940148;29;20292;-36
2020/12/06 09:11:19;;;;;;;78.30;41.20;;;;;;;4.58;100.00;98726.19;4940006;29;20475;-35
2020/12/06 09:14:05;;;;;;;73.60;40.77;;;;;;;4.60;100.00;98722.72;4940197;29;20205;-35
2020/12/06 09:16:51;;;;;;;75.23;39.57;;;;;;;4.59;100.00;98721.06;4940006;29;20465;-35
2020/12/06 09:19:37;;;;;;;81.70;41.13;;;;;;;4.90;100.00;98724.13;4940175;29;20202;-37
2020/12/06 09:22:23;;;;;;;72.43;40.47;;;;;;;4.71;100.00;98713.25;4940125;29;20204;-35
2020/12/06 09:25:08;;;;;;;82.37;43.43;;;;;;;4.64;100.00;98718.44;4938845;29;20205;-33
2020/12/06 09:27:55;;;;;;;79.33;42.30;;;;;;;4.58;100.00;98710.84;4939741;29;20221;-33
2020/12/06 09:30:46;;;;;;;75.07;38.90;;;;;;;4.58;100.00;98710.84;4939878;29;20617;-33
2020/12/06 09:33:32;;;;;;;74.70;39.53;;;;;;;4.43;100.00;98724.59;4939488;29;20401;-34
2020/12/06 09:36:19;;;;;;;69.07;37.57;;;;;;;4.43;100.00;98722.91;4939149;29;20201;-37
2020/12/06 09:39:04;;;;;;;76.17;39.87;;;;;;;4.40;100.00;98717.81;4939062;29;20204;-32
2020/12/06 09:41:50;;;;;;;80.10;41.97;;;;;;;4.57;100.00;98714.25;4936726;29;20201;-34
2020/12/06 09:44:37;;;;;;;78.67;41.57;;;;;;;4.62;100.00;98710.75;4938867;29;20216;-38
2020/12/06 09:47:25;;;;;;;65.00;36.80;;;;;;;4.44;100.00;98714.34;4920208;29;20210;-34
2020/12/06 09:50:10;;;;;;;70.37;38.83;;;;;;;4.57;100.00;98733.03;4920172;29;20334;-33
2020/12/06 09:52:57;;;;;;;61.37;35.10;;;;;;;4.53;100.00;98725.38;4919300;29;20364;-36
2020/12/06 09:55:42;;;;;;;62.60;34.73;;;;;;;4.52;100.00;98726.25;4921743;29;20485;-36
2020/12/06 09:58:30;;;;;;;68.53;36.53;;;;;;;4.65;100.00;98727.81;4935502;29;20608;-32
2020/12/06 10:01:15;;;;;;;63.20;35.23;;;;;;;4.61;100.00;98734.66;4943209;29;20213;-34
2020/12/06 10:04:01;;;;;;;70.33;38.93;;;;;;;4.76;100.00;98729.41;4943473;29;20224;-37
2020/12/06 10:06:47;;;;;;;73.10;36.30;;;;;;;4.65;100.00;98732.94;4927650;29;20740;-33
2020/12/06 10:09:35;;;;;;;66.53;36.50;;;;;;;5.04;100.00;98732.50;4924303;29;20228;-33
2020/12/06 10:12:21;;;;;;;68.03;37.03;;;;;;;4.55;100.00;98726.22;4922912;29;20316;-36
2020/12/06 10:15:06;;;;;;;73.77;36.97;;;;;;;4.96;100.00;98729.19;4923478;29;20268;-34
2020/12/06 10:17:52;;;;;;;79.43;40.93;;;;;;;4.99;100.00;98716.38;4923305;29;20673;-36
2020/12/06 10:20:38;;;;;;;74.43;39.63;;;;;;;5.09;100.00;98723.06;4923104;29;20508;-35
2020/12/06 10:23:24;;;;;;;74.40;38.40;;;;;;;5.07;100.00;98719.66;4922778;29;20202;-35
2020/12/06 10:26:12;;;;;;;78.83;39.07;;;;;;;5.10;100.00;98704.25;4923322;29;20480;-34
2020/12/06 10:28:58;;;;;;;69.47;37.43;;;;;;;5.07;100.00;98690.63;4922914;29;20238;-37
2020/12/06 10:31:45;;;;;;;78.60;38.57;;;;;;;5.07;100.00;98665.84;4921637;29;20340;-32
2020/12/06 10:34:30;;;;;;;69.83;37.20;;;;;;;5.22;100.00;98659.66;4923145;29;20219;-36
2020/12/06 10:37:17;;;;;;;73.43;37.73;;;;;;;5.17;100.00;98667.44;4923468;29;20205;-33
2020/12/06 10:40:05;;;;;;;80.63;41.30;;;;;;;5.31;100.00;98671.53;4922962;29;20219;-34
2020/12/06 10:42:52;;;;;;;64.17;35.77;;;;;;;5.32;100.00;98665.53;4923363;29;20211;-35
2020/12/06 10:45:41;;;;;;;75.27;39.07;;;;;;;5.28;100.00;98662.16;4922584;29;20265;-33
2020/12/06 10:48:26;;;;;;;62.03;37.10;;;;;;;5.19;100.00;98650.34;4921779;29;20367;-32
2020/12/06 10:51:12;;;;;;;66.50;36.50;;;;;;;5.33;100.00;98654.41;4921863;29;20199;-35
2020/12/06 10:53:57;;;;;;;70.07;36.23;;;;;;;5.57;100.00;98648.09;4922325;29;20212;-33
2020/12/06 10:56:44;;;;;;;62.27;35.83;;;;;;;5.18;100.00;98643.50;4922529;29;20418;-39
2020/12/06 10:59:35;;;;;;;73.20;37.63;;;;;;;5.29;100.00;98652.75;4922447;29;20294;-34
2020/12/06 11:02:22;;;;;;;65.50;36.27;;;;;;;5.11;100.00;98656.41;4922847;29;20496;-32
2020/12/06 11:05:09;;;;;;;70.10;38.10;;;;;;;5.29;100.00;98647.63;4921051;29;20279;-37
2020/12/06 11:07:54;;;;;;;70.27;35.60;;;;;;;5.23;100.00;98634.88;4940330;29;20214;-33
2020/12/06 11:10:40;;;;;;;75.97;39.00;;;;;;;5.19;100.00;98640.09;4941952;29;20203;-36
2020/12/06 11:13:26;;;;;;;65.60;35.73;;;;;;;5.49;100.00;98638.78;4941393;29;20484;-33
2020/12/06 11:16:17;;;;;;;77.10;39.10;;;;;;;5.59;100.00;98642.06;4941594;29;20275;-34
2020/12/06 11:19:03;;;;;;;77.40;39.70;;;;;;;5.57;100.00;98632.69;4941613;29;20255;-34
2020/12/06 11:21:51;;;;;;;75.60;36.77;;;;;;;5.70;100.00;98629.91;4940917;29;20330;-34
2020/12/06 11:24:39;;;;;;;75.97;36.10;;;;;;;5.78;100.00;98643.47;4941339;29;20338;-35
2020/12/06 11:27:25;;;;;;;71.33;36.90;;;;;;;5.67;100.00;98634.25;4941687;29;20205;-35
2020/12/06 11:30:11;;;;;;;68.17;36.63;;;;;;;5.90;100.00;98633.91;4941768;29;20229;-37
2020/12/06 11:32:57;;;;;;;67.63;36.17;;;;;;;5.66;100.00;98635.09;4940864;29;20382;-35
2020/12/06 11:35:47;;;;;;;63.43;34.83;;;;;;;5.74;100.00;98629.00;4939969;29;20875;-37
2020/12/06 11:38:33;;;;;;;65.27;35.67;;;;;;;5.89;100.00;98633.06;4940907;29;20540;-32
2020/12/06 11:41:21;;;;;;;73.90;38.00;;;;;;;5.79;100.00;98616.97;4941566;29;20294;-33
2020/12/06 11:44:08;;;;;;;73.10;36.00;;;;;;;5.48;100.00;98620.84;4939286;29;20205;-34
2020/12/06 11:46:54;;;;;;;69.87;37.07;;;;;;;5.56;100.00;98616.47;4941317;29;20212;-32
2020/12/06 11:49:41;;;;;;;71.87;35.97;;;;;;;5.61;100.00;98617.22;4940159;29;20235;-34
2020/12/06 11:52:29;;;;;;;70.33;37.53;;;;;;;5.84;100.00;98625.41;4940793;29;20206;-35
2020/12/06 11:55:15;;;;;;;69.07;37.43;;;;;;;5.72;100.00;98625.59;4940325;29;20207;-32
2020/12/06 11:58:00;;;;;;;72.40;37.37;;;;;;;5.69;100.00;98637.63;4940834;29;20211;-36
2020/12/06 12:00:46;;;;;;;73.90;38.10;;;;;;;5.80;100.00;98631.44;4941200;29;20420;-34
2020/12/06 12:03:36;;;;;;;72.07;39.00;;;;;;;5.73;100.00;98627.31;4940777;29;20208;-35
2020/12/06 12:06:23;;;;;;;79.77;40.23;;;;;;;5.69;100.00;98619.69;4941220;29;20210;-38
2020/12/06 12:09:13;;;;;;;75.33;39.10;;;;;;;5.82;100.00;98628.84;4940471;29;20239;-39
2020/12/06 12:11:59;;;;;;;71.17;38.97;;;;;;;5.76;100.00;98624.69;4940454;29;20229;-32
2020/12/06 12:14:44;;;;;;;70.03;37.97;;;;;;;5.83;100.00;98628.84;4940715;29;20210;-34
2020/12/06 12:17:32;;;;;;;59.10;35.00;;;;;;;5.85;100.00;98619.41;4941000;29;20200;-34
2020/12/06 12:20:18;;;;;;;74.33;37.77;;;;;;;6.01;100.00;98609.75;4939680;29;20204;-34
2020/12/06 12:23:05;;;;;;;73.97;39.50;;;;;;;5.64;100.00;98613.75;4939368;29;20207;-33
2020/12/06 12:25:50;;;;;;;69.43;36.67;;;;;;;5.74;100.00;98612.75;4938815;29;20354;-37
2020/12/06 12:28:36;;;;;;;65.53;35.70;;;;;;;5.52;100.00;98607.97;4940523;29;20219;-35
2020/12/06 12:31:22;;;;;;;65.40;35.60;;;;;;;5.56;100.00;98608.78;4939921;29;20672;-34
2020/12/06 12:34:07;;;;;;;66.67;37.00;;;;;;;5.68;100.00;98608.56;4940586;29;20206;-36
2020/12/06 12:36:55;;;;;;;62.60;36.50;;;;;;;5.48;100.00;98606.31;4940649;29;20242;-36
2020/12/06 12:39:41;;;;;;;66.67;37.63;;;;;;;5.34;100.00;98604.84;4940223;29;20260;-35
2020/12/06 12:42:27;;;;;;;63.73;35.50;;;;;;;5.39;100.00;98608.19;4939377;29;20210;-35
2020/12/06 12:45:19;;;;;;;59.20;34.77;;;;;;;4.97;100.00;98613.03;4939559;29;20207;-33
2020/12/06 12:48:08;;;;;;;67.57;38.33;;;;;;;5.35;100.00;98619.34;4939073;29;20206;-35